createdAt,value
2018-04-17T00:00:26.798Z,0.00
2018-04-17T00:01:26.773Z,0.00
2018-04-17T00:02:26.746Z,0.00
2018-04-17T00:03:26.715Z,0.00
2018-04-17T00:04:26.689Z,0.00
2018-04-17T00:05:26.690Z,0.00
2018-04-17T00:06:26.636Z,0.00
2018-04-17T00:07:26.609Z,0.00
2018-04-17T00:08:26.582Z,0.00
2018-04-17T00:09:26.556Z,0.00
2018-04-17T00:10:26.527Z,0.00
2018-04-17T00:11:26.498Z,0.00
2018-04-17T00:12:26.471Z,0.00
2018-04-17T00:13:26.443Z,0.00
2018-04-17T00:14:26.417Z,0.00
2018-04-17T00:15:26.389Z,0.00
2018-04-17T00:16:26.362Z,0.00
2018-04-17T00:17:26.336Z,0.00
2018-04-17T00:18:26.311Z,0.00
2018-04-17T00:19:26.279Z,0.00
2018-04-17T00:20:26.253Z,0.00
2018-04-17T00:21:26.225Z,0.00
2018-04-17T00:22:26.198Z,0.00
2018-04-17T00:23:26.170Z,0.00
2018-04-17T00:24:26.144Z,0.00
2018-04-17T00:25:26.116Z,0.00
2018-04-17T00:26:26.090Z,0.00
2018-04-17T00:27:26.061Z,0.00
2018-04-17T00:28:26.034Z,0.00
2018-04-17T00:29:26.014Z,0.00
2018-04-17T00:30:25.980Z,0.00
2018-04-17T00:31:25.955Z,0.00
2018-04-17T00:32:25.961Z,0.00
2018-04-17T00:33:25.900Z,0.00
2018-04-17T00:34:25.870Z,0.00
2018-04-17T00:35:25.842Z,0.00
2018-04-17T00:36:25.815Z,0.00
2018-04-17T00:37:25.788Z,0.00
2018-04-17T00:38:25.761Z,0.00
2018-04-17T00:39:25.734Z,0.00
2018-04-17T00:40:25.708Z,0.00
2018-04-17T00:41:25.680Z,0.00
2018-04-17T00:42:25.655Z,0.00
2018-04-17T00:43:25.624Z,0.00
2018-04-17T00:44:25.597Z,0.00
2018-04-17T00:45:25.576Z,0.00
2018-04-17T00:46:25.544Z,0.00
2018-04-17T00:47:25.515Z,0.00
2018-04-17T00:48:25.491Z,0.00
2018-04-17T00:49:25.466Z,0.00
2018-04-17T00:50:25.434Z,0.00
2018-04-17T00:51:25.405Z,0.00
2018-04-17T00:52:25.379Z,0.00
2018-04-17T00:53:25.352Z,0.00
2018-04-17T00:54:25.334Z,0.00
2018-04-17T00:55:25.296Z,0.00
2018-04-17T00:56:25.269Z,0.00
2018-04-17T00:57:25.243Z,0.00
2018-04-17T00:58:25.215Z,0.00
2018-04-17T00:59:25.191Z,0.00
2018-04-17T01:00:25.160Z,0.00
2018-04-17T01:01:25.133Z,0.00
2018-04-17T01:02:25.107Z,0.00
2018-04-17T01:03:25.078Z,0.00
2018-04-17T01:04:25.051Z,0.00
2018-04-17T01:05:25.024Z,0.00
2018-04-17T01:06:25.009Z,0.00
2018-04-17T01:07:24.968Z,0.00
2018-04-17T01:08:24.947Z,0.00
2018-04-17T01:09:24.913Z,0.00
2018-04-17T01:10:24.888Z,0.00
2018-04-17T01:11:24.859Z,0.00
2018-04-17T01:12:24.831Z,0.00
2018-04-17T01:13:24.807Z,0.00
2018-04-17T01:14:24.783Z,0.00
2018-04-17T01:15:24.748Z,0.00
2018-04-17T01:16:24.722Z,0.00
2018-04-17T01:17:24.694Z,0.00
2018-04-17T01:18:24.667Z,0.00
2018-04-17T01:19:24.649Z,0.00
2018-04-17T01:20:24.615Z,0.00
2018-04-17T01:21:24.585Z,0.00
2018-04-17T01:22:24.556Z,0.00
2018-04-17T01:23:24.528Z,0.00
2018-04-17T01:24:24.501Z,0.00
2018-04-17T01:25:24.474Z,0.00
2018-04-17T01:26:24.446Z,0.00
2018-04-17T01:27:24.431Z,0.00
2018-04-17T01:28:24.391Z,0.00
2018-04-17T01:29:24.363Z,0.00
2018-04-17T01:30:24.336Z,0.00
2018-04-17T01:31:24.307Z,0.00
2018-04-17T01:32:24.287Z,0.00
2018-04-17T01:33:24.253Z,0.00
2018-04-17T01:34:24.225Z,0.00
2018-04-17T01:35:24.210Z,0.00
2018-04-17T01:36:24.172Z,0.00
2018-04-17T01:37:24.145Z,0.00
2018-04-17T01:38:24.117Z,0.00
2018-04-17T01:39:24.091Z,0.00
2018-04-17T01:40:24.059Z,0.00
2018-04-17T01:41:24.034Z,0.00
2018-04-17T01:42:24.005Z,0.00
2018-04-17T01:43:23.977Z,0.00
2018-04-17T01:44:23.949Z,0.00
2018-04-17T01:45:23.922Z,0.00
2018-04-17T01:46:23.894Z,0.00
2018-04-17T01:47:23.867Z,0.00
2018-04-17T01:48:23.839Z,0.00
2018-04-17T01:49:23.811Z,0.00
2018-04-17T01:50:23.784Z,0.00
2018-04-17T01:51:23.757Z,0.00
2018-04-17T01:52:23.729Z,0.00
2018-04-17T01:53:23.704Z,0.00
2018-04-17T01:54:23.675Z,0.00
2018-04-17T01:55:23.647Z,0.00
2018-04-17T01:56:23.620Z,0.00
2018-04-17T01:57:23.593Z,0.00
2018-04-17T01:58:23.566Z,0.00
2018-04-17T01:59:23.538Z,0.00
2018-04-17T02:00:23.511Z,0.00
2018-04-17T02:01:23.484Z,0.00
2018-04-17T02:02:23.459Z,0.00
2018-04-17T02:03:23.431Z,0.00
2018-04-17T02:04:23.402Z,0.00
2018-04-17T02:05:23.375Z,0.00
2018-04-17T02:06:23.346Z,0.00
2018-04-17T02:07:23.319Z,0.00
2018-04-17T02:08:23.290Z,0.00
2018-04-17T02:09:23.264Z,0.00
2018-04-17T02:10:23.244Z,0.00
2018-04-17T02:11:23.211Z,0.00
2018-04-17T02:12:23.180Z,0.00
2018-04-17T02:13:23.153Z,0.00
2018-04-17T02:14:23.127Z,0.00
2018-04-17T02:15:23.100Z,0.00
2018-04-17T02:16:23.070Z,0.00
2018-04-17T02:17:23.042Z,0.00
2018-04-17T02:18:23.015Z,0.00
2018-04-17T02:19:22.986Z,0.00
2018-04-17T02:20:22.959Z,0.00
2018-04-17T02:21:22.937Z,0.00
2018-04-17T02:22:22.904Z,0.00
2018-04-17T02:23:22.876Z,0.00
2018-04-17T02:24:22.851Z,0.00
2018-04-17T02:25:22.821Z,0.00
2018-04-17T02:26:22.794Z,0.00
2018-04-17T02:27:22.766Z,0.00
2018-04-17T02:28:22.739Z,0.00
2018-04-17T02:29:22.712Z,0.00
2018-04-17T02:30:22.685Z,0.00
2018-04-17T02:31:22.656Z,0.00
2018-04-17T02:32:22.630Z,0.00
2018-04-17T02:33:22.602Z,0.00
2018-04-17T02:34:22.574Z,0.00
2018-04-17T02:35:22.547Z,0.00
2018-04-17T02:36:22.519Z,0.00
2018-04-17T02:37:22.493Z,0.00
2018-04-17T02:38:22.463Z,0.00
2018-04-17T02:39:22.435Z,0.00
2018-04-17T02:40:22.408Z,0.00
2018-04-17T02:41:22.380Z,0.00
2018-04-17T02:42:22.353Z,0.00
2018-04-17T02:43:22.324Z,0.00
2018-04-17T02:44:22.297Z,0.00
2018-04-17T02:45:22.269Z,0.00
2018-04-17T02:46:22.241Z,0.00
2018-04-17T02:47:22.213Z,0.00
2018-04-17T02:48:22.186Z,0.00
2018-04-17T02:49:22.159Z,0.00
2018-04-17T02:50:22.130Z,0.00
2018-04-17T02:51:22.102Z,0.00
2018-04-17T02:52:22.074Z,0.00
2018-04-17T02:53:22.046Z,0.00
2018-04-17T02:54:22.019Z,0.00
2018-04-17T02:55:21.996Z,0.00
2018-04-17T02:56:21.963Z,0.00
2018-04-17T02:57:21.936Z,0.00
2018-04-17T02:58:21.909Z,0.00
2018-04-17T02:59:21.879Z,0.00
2018-04-17T03:00:21.851Z,0.00
2018-04-17T03:01:21.825Z,0.00
2018-04-17T03:02:21.796Z,0.00
2018-04-17T03:03:21.767Z,0.00
2018-04-17T03:04:21.741Z,0.00
2018-04-17T03:05:21.712Z,0.00
2018-04-17T03:06:21.684Z,0.00
2018-04-17T03:07:21.656Z,0.00
2018-04-17T03:08:21.629Z,0.00
2018-04-17T03:09:21.602Z,0.00
2018-04-17T03:10:21.573Z,0.00
2018-04-17T03:11:21.549Z,0.00
2018-04-17T03:12:21.522Z,0.00
2018-04-17T03:13:21.495Z,0.00
2018-04-17T03:14:21.462Z,0.00
2018-04-17T03:15:21.436Z,0.00
2018-04-17T03:16:21.406Z,0.00
2018-04-17T03:17:21.379Z,0.00
2018-04-17T03:18:21.351Z,0.00
2018-04-17T03:19:21.323Z,0.00
2018-04-17T03:20:21.295Z,0.00
2018-04-17T03:21:21.278Z,0.00
2018-04-17T03:22:21.241Z,0.00
2018-04-17T03:23:21.212Z,0.00
2018-04-17T03:24:21.184Z,0.00
2018-04-17T03:25:21.157Z,0.00
2018-04-17T03:26:21.129Z,0.00
2018-04-17T03:27:21.100Z,0.00
2018-04-17T03:28:21.074Z,0.00
2018-04-17T03:29:21.046Z,0.00
2018-04-17T03:30:21.024Z,0.00
2018-04-17T03:31:20.992Z,0.00
2018-04-17T03:32:20.964Z,0.00
2018-04-17T03:33:20.934Z,0.00
2018-04-17T03:34:20.914Z,0.00
2018-04-17T03:35:20.879Z,0.00
2018-04-17T03:36:20.850Z,4.00
2018-04-17T03:37:20.823Z,4.00
2018-04-17T03:38:20.799Z,4.00
2018-04-17T03:39:20.767Z,0.00
2018-04-17T03:40:20.739Z,4.00
2018-04-17T03:41:20.713Z,4.00
2018-04-17T03:42:20.686Z,8.00
2018-04-17T03:43:20.667Z,4.00
2018-04-17T03:44:20.627Z,8.00
2018-04-17T03:45:20.599Z,8.00
2018-04-17T03:46:20.572Z,8.00
2018-04-17T03:47:20.549Z,12.00
2018-04-17T03:48:20.515Z,12.00
2018-04-17T03:49:20.489Z,16.00
2018-04-17T03:50:20.461Z,20.00
2018-04-17T03:51:20.432Z,20.00
2018-04-17T03:52:20.404Z,24.00
2018-04-17T03:53:20.376Z,28.00
2018-04-17T03:54:20.353Z,32.00
2018-04-17T03:55:20.320Z,36.00
2018-04-17T03:56:20.293Z,44.00
2018-04-17T03:57:20.265Z,52.00
2018-04-17T03:58:20.237Z,60.00
2018-04-17T03:59:20.209Z,72.00
2018-04-17T04:00:20.180Z,80.00
2018-04-17T04:01:20.154Z,92.00
2018-04-17T04:02:20.126Z,108.00
2018-04-17T04:03:20.098Z,120.00
2018-04-17T04:04:20.070Z,132.00
2018-04-17T04:05:20.043Z,152.00
2018-04-17T04:06:20.015Z,172.00
2018-04-17T04:07:19.990Z,196.00
2018-04-17T04:08:19.958Z,220.00
2018-04-17T04:09:19.933Z,244.00
2018-04-17T04:10:19.904Z,276.00
2018-04-17T04:11:19.875Z,308.00
2018-04-17T04:12:19.855Z,336.00
2018-04-17T04:13:19.820Z,376.00
2018-04-17T04:14:19.792Z,416.00
2018-04-17T04:15:19.766Z,460.00
2018-04-17T04:16:19.738Z,500.00
2018-04-17T04:17:19.709Z,548.00
2018-04-17T04:18:19.681Z,604.00
2018-04-17T04:19:19.652Z,656.00
2018-04-17T04:20:19.627Z,712.00
2018-04-17T04:21:19.598Z,772.00
2018-04-17T04:22:19.569Z,836.00
2018-04-17T04:23:19.541Z,896.00
2018-04-17T04:24:19.513Z,964.00
2018-04-17T04:25:19.488Z,1032.00
2018-04-17T04:26:19.458Z,1100.00
2018-04-17T04:27:19.429Z,1176.00
2018-04-17T04:28:19.401Z,1252.00
2018-04-17T04:29:19.374Z,1328.00
2018-04-17T04:30:19.347Z,1408.00
2018-04-17T04:31:19.319Z,1492.00
2018-04-17T04:32:19.291Z,1576.00
2018-04-17T04:33:19.264Z,1660.00
2018-04-17T04:34:19.236Z,1756.00
2018-04-17T04:35:19.208Z,1844.00
2018-04-17T04:36:19.185Z,1948.00
2018-04-17T04:37:19.156Z,2052.00
2018-04-17T04:38:19.125Z,2160.00
2018-04-17T04:39:19.097Z,2264.00
2018-04-17T04:40:19.073Z,2364.00
2018-04-17T04:41:19.064Z,2468.00
2018-04-17T04:42:19.015Z,2568.00
2018-04-17T04:43:19.001Z,2676.00
2018-04-17T04:44:18.960Z,2784.00
2018-04-17T04:45:18.933Z,2888.00
2018-04-17T04:46:18.905Z,3000.00
2018-04-17T04:47:18.877Z,3128.00
2018-04-17T04:48:18.849Z,3248.00
2018-04-17T04:49:18.822Z,3364.00
2018-04-17T04:50:18.795Z,3424.00
2018-04-17T04:51:18.767Z,3500.00
2018-04-17T04:52:18.740Z,3628.00
2018-04-17T04:53:18.713Z,3748.00
2018-04-17T04:54:18.686Z,3844.00
2018-04-17T04:55:18.659Z,3888.00
2018-04-17T04:56:18.635Z,4048.00
2018-04-17T04:57:18.605Z,4216.00
2018-04-17T04:58:18.577Z,4260.00
2018-04-17T04:59:18.549Z,4308.00
2018-04-17T05:00:18.522Z,4420.00
2018-04-17T05:01:18.501Z,4528.00
2018-04-17T05:02:18.469Z,4636.00
2018-04-17T05:03:18.441Z,4748.00
2018-04-17T05:04:18.415Z,4864.00
2018-04-17T05:05:18.391Z,4972.00
2018-04-17T05:06:18.361Z,5076.00
2018-04-17T05:07:18.338Z,5184.00
2018-04-17T05:08:18.306Z,5288.00
2018-04-17T05:09:18.283Z,5396.00
2018-04-17T05:10:18.253Z,5496.00
2018-04-17T05:11:18.225Z,5652.00
2018-04-17T05:12:18.198Z,6124.00
2018-04-17T05:13:18.172Z,6728.00
2018-04-17T05:14:18.145Z,7240.00
2018-04-17T05:15:18.121Z,7620.00
2018-04-17T05:16:18.091Z,7928.00
2018-04-17T05:17:18.064Z,8024.00
2018-04-17T05:18:18.039Z,7360.00
2018-04-17T05:19:18.012Z,7392.00
2018-04-17T05:20:17.989Z,8488.00
2018-04-17T05:21:17.958Z,8460.00
2018-04-17T05:22:17.932Z,7732.00
2018-04-17T05:23:17.910Z,8368.00
2018-04-17T05:24:17.878Z,9420.00
2018-04-17T05:25:17.853Z,9760.00
2018-04-17T05:26:19.027Z,10116.00
2018-04-17T05:27:17.799Z,10388.00
2018-04-17T05:28:17.773Z,10648.00
2018-04-17T05:29:17.747Z,10944.00
2018-04-17T05:30:17.721Z,11224.00
2018-04-17T05:31:17.732Z,11540.00
2018-04-17T05:32:17.674Z,11588.00
2018-04-17T05:33:17.649Z,11764.00
2018-04-17T05:34:17.654Z,11956.00
2018-04-17T05:35:17.596Z,12188.00
2018-04-17T05:36:17.567Z,12296.00
2018-04-17T05:37:17.541Z,12380.00
2018-04-17T05:38:17.516Z,12676.00
2018-04-17T05:39:17.493Z,12948.00
2018-04-17T05:40:17.465Z,13320.00
2018-04-17T05:41:17.441Z,13544.00
2018-04-17T05:42:17.416Z,13792.00
2018-04-17T05:43:17.394Z,14112.00
2018-04-17T05:44:17.365Z,14400.00
2018-04-17T05:45:17.341Z,14432.00
2018-04-17T05:46:17.317Z,14752.00
2018-04-17T05:47:17.291Z,14464.00
2018-04-17T05:48:17.267Z,14400.00
2018-04-17T05:49:17.243Z,14560.00
2018-04-17T05:50:17.218Z,14720.00
2018-04-17T05:51:17.197Z,14816.00
2018-04-17T05:52:17.177Z,15104.00
2018-04-17T05:53:17.146Z,15776.00
2018-04-17T05:54:17.122Z,15776.00
2018-04-17T05:55:17.097Z,15936.00
2018-04-17T05:56:17.073Z,15872.00
2018-04-17T05:57:17.049Z,16032.00
2018-04-17T05:58:17.026Z,16480.00
2018-04-17T05:59:17.006Z,16576.00
2018-04-17T06:00:16.978Z,17120.00
2018-04-17T06:01:16.956Z,17664.00
2018-04-17T06:02:16.931Z,18304.00
2018-04-17T06:03:16.906Z,19072.00
2018-04-17T06:04:16.883Z,19616.00
2018-04-17T06:05:16.890Z,20000.00
2018-04-17T06:06:16.837Z,20192.00
2018-04-17T06:07:16.813Z,20064.00
2018-04-17T06:08:16.790Z,20448.00
2018-04-17T06:09:16.770Z,20736.00
2018-04-17T06:10:16.744Z,20992.00
2018-04-17T06:11:16.720Z,21344.00
2018-04-17T06:12:16.697Z,21696.00
2018-04-17T06:13:16.674Z,21824.00
2018-04-17T06:14:16.651Z,22144.00
2018-04-17T06:15:16.628Z,22368.00
2018-04-17T06:16:16.605Z,22624.00
2018-04-17T06:17:16.590Z,23296.00
2018-04-17T06:18:16.569Z,24320.00
2018-04-17T06:19:16.537Z,24544.00
2018-04-17T06:20:16.515Z,24640.00
2018-04-17T06:21:16.491Z,24960.00
2018-04-17T06:22:16.469Z,25632.00
2018-04-17T06:23:16.463Z,25760.00
2018-04-17T06:24:16.431Z,26432.00
2018-04-17T06:25:16.401Z,27360.00
2018-04-17T06:26:16.382Z,27040.00
2018-04-17T06:27:16.357Z,27712.00
2018-04-17T06:28:16.333Z,28736.00
2018-04-17T06:29:16.314Z,28896.00
2018-04-17T06:30:16.290Z,29184.00
2018-04-17T06:31:16.267Z,30112.00
2018-04-17T06:32:16.247Z,31328.00
2018-04-17T06:33:16.224Z,31200.00
2018-04-17T06:34:16.201Z,31392.00
2018-04-17T06:35:16.184Z,32032.00
2018-04-17T06:36:16.159Z,32672.00
2018-04-17T06:37:16.149Z,33344.00
2018-04-17T06:38:16.115Z,33856.00
2018-04-17T06:39:16.120Z,34240.00
2018-04-17T06:40:16.075Z,34560.00
2018-04-17T06:41:16.051Z,35136.00
2018-04-17T06:42:16.033Z,36032.00
2018-04-17T06:43:16.013Z,36480.00
2018-04-17T06:44:15.988Z,37184.00
2018-04-17T06:45:15.969Z,37632.00
2018-04-17T06:46:15.963Z,37184.00
2018-04-17T06:47:15.993Z,37632.00
2018-04-17T06:48:15.906Z,39904.00
2018-04-17T06:49:15.887Z,40032.00
2018-04-17T06:50:15.867Z,38464.00
2018-04-17T06:51:15.845Z,38976.00
2018-04-17T06:52:15.825Z,40224.00
2018-04-17T06:53:15.806Z,40000.00
2018-04-17T06:54:15.866Z,37344.00
2018-04-17T06:55:15.767Z,36832.00
2018-04-17T06:56:15.751Z,35872.00
2018-04-17T06:57:15.730Z,36416.00
2018-04-17T06:58:15.707Z,36480.00
2018-04-17T06:59:15.688Z,34496.00
2018-04-17T07:00:15.676Z,32512.00
2018-04-17T07:01:15.648Z,31936.00
2018-04-17T07:02:15.630Z,29664.00
2018-04-17T07:03:15.616Z,26624.00
2018-04-17T07:04:15.600Z,25088.00
2018-04-17T07:05:15.640Z,25184.00
2018-04-17T07:06:15.561Z,24736.00
2018-04-17T07:07:15.534Z,24288.00
2018-04-17T07:08:15.520Z,23904.00
2018-04-17T07:09:15.501Z,23712.00
2018-04-17T07:10:15.482Z,23808.00
2018-04-17T07:11:15.459Z,24480.00
2018-04-17T07:12:15.442Z,39360.00
2018-04-17T07:13:15.429Z,53600.00
2018-04-17T07:14:15.404Z,51904.00
2018-04-17T07:15:15.385Z,47488.00
2018-04-17T07:16:15.366Z,45856.00
2018-04-17T07:17:15.348Z,44192.00
2018-04-17T07:18:15.329Z,44544.00
2018-04-17T07:19:15.309Z,44000.00
2018-04-17T07:20:15.290Z,44384.00
2018-04-17T07:21:15.272Z,43680.00
2018-04-17T07:22:15.256Z,43488.00
2018-04-17T07:23:15.237Z,45632.00
2018-04-17T07:24:15.215Z,43840.00
2018-04-17T07:25:15.197Z,43840.00
2018-04-17T07:26:15.178Z,44832.00
2018-04-17T07:27:15.159Z,44256.00
2018-04-17T07:28:15.153Z,44480.00
2018-04-17T07:29:15.122Z,45120.00
2018-04-17T07:30:15.102Z,45536.00
2018-04-17T07:31:15.082Z,45312.00
2018-04-17T07:32:15.065Z,45088.00
2018-04-17T07:33:15.046Z,45696.00
2018-04-17T07:34:15.029Z,44000.00
2018-04-17T07:35:15.014Z,42976.00
2018-04-17T07:36:14.988Z,43328.00
2018-04-17T07:37:14.970Z,43392.00
2018-04-17T07:38:14.963Z,42208.00
2018-04-17T07:39:14.936Z,42208.00
2018-04-17T07:40:14.916Z,43328.00
2018-04-17T07:41:14.894Z,42272.00
2018-04-17T07:42:14.878Z,41760.00
2018-04-17T07:43:14.856Z,42784.00
2018-04-17T07:44:14.846Z,42976.00
2018-04-17T07:45:14.821Z,43168.00
2018-04-17T07:46:14.801Z,42848.00
2018-04-17T07:47:14.781Z,42208.00
2018-04-17T07:48:14.764Z,42624.00
2018-04-17T07:49:14.746Z,42848.00
2018-04-17T07:50:14.727Z,43776.00
2018-04-17T07:51:14.708Z,44480.00
2018-04-17T07:52:14.689Z,45024.00
2018-04-17T07:53:14.671Z,46400.00
2018-04-17T07:54:14.652Z,46528.00
2018-04-17T07:55:14.640Z,45312.00
2018-04-17T07:56:14.617Z,46240.00
2018-04-17T07:57:14.606Z,47680.00
2018-04-17T07:58:14.579Z,47360.00
2018-04-17T07:59:14.559Z,48576.00
2018-04-17T08:00:14.542Z,48032.00
2018-04-17T08:01:14.524Z,48064.00
2018-04-17T08:02:14.507Z,50176.00
2018-04-17T08:03:14.486Z,49760.00
2018-04-17T08:04:14.469Z,50912.00
2018-04-17T08:05:14.451Z,52192.00
2018-04-17T08:06:14.434Z,54240.00
2018-04-17T08:07:14.414Z,55488.00
2018-04-17T08:08:14.415Z,54016.00
2018-04-17T08:09:14.382Z,52320.00
2018-04-17T08:10:14.362Z,54688.00
2018-04-17T08:11:14.342Z,56544.00
2018-04-17T08:12:14.355Z,53536.00
2018-04-17T08:13:14.314Z,55712.00
2018-04-17T08:14:14.291Z,56544.00
2018-04-17T08:15:14.272Z,56960.00
2018-04-17T08:16:14.259Z,60032.00
2018-04-17T08:17:14.250Z,59520.00
2018-04-17T08:18:14.221Z,57440.00
2018-04-17T08:19:14.203Z,57696.00
2018-04-17T08:20:14.188Z,58240.00
2018-04-17T08:21:14.171Z,57344.00
2018-04-17T08:22:14.154Z,55872.00
2018-04-17T08:23:14.144Z,55744.00
2018-04-17T08:24:14.117Z,55456.00
2018-04-17T08:25:14.103Z,55200.00
2018-04-17T08:26:14.087Z,55968.00
2018-04-17T08:27:14.064Z,55104.00
2018-04-17T08:28:14.047Z,56640.00
2018-04-17T08:29:14.030Z,58624.00
2018-04-17T08:30:14.013Z,59520.00
2018-04-17T08:31:14.014Z,61920.00
2018-04-17T08:32:13.999Z,65728.00
2018-04-17T08:33:13.965Z,65888.00
2018-04-17T08:34:13.954Z,67360.00
2018-04-17T08:35:13.946Z,72576.00
2018-04-17T08:36:13.905Z,72576.00
2018-04-17T08:37:13.890Z,76352.00
2018-04-17T08:38:13.870Z,75680.00
2018-04-17T08:39:13.853Z,75552.00
2018-04-17T08:40:13.836Z,74112.00
2018-04-17T08:41:13.820Z,75296.00
2018-04-17T08:42:13.801Z,74816.00
2018-04-17T08:43:13.791Z,73216.00
2018-04-17T08:44:13.766Z,73472.00
2018-04-17T08:45:13.820Z,46816.00
2018-04-17T08:46:13.733Z,74432.00
2018-04-17T08:47:13.714Z,71168.00
2018-04-17T08:48:13.730Z,71808.00
2018-04-17T08:49:13.713Z,71296.00
2018-04-17T08:50:13.676Z,72608.00
2018-04-17T08:51:13.655Z,74784.00
2018-04-17T08:52:13.648Z,76512.00
2018-04-17T08:53:13.616Z,75616.00
2018-04-17T08:54:13.604Z,76224.00
2018-04-17T08:55:13.589Z,79936.00
2018-04-17T08:56:13.565Z,82016.00
2018-04-17T08:57:13.548Z,81120.00
2018-04-17T08:58:13.533Z,79616.00
2018-04-17T08:59:13.523Z,79936.00
2018-04-17T09:00:13.511Z,79680.00
2018-04-17T09:01:13.490Z,80544.00
2018-04-17T09:02:13.468Z,81504.00
2018-04-17T09:03:13.453Z,83040.00
2018-04-17T09:04:13.436Z,84192.00
2018-04-17T09:05:13.433Z,73280.00
2018-04-17T09:06:13.407Z,81792.00
2018-04-17T09:07:13.388Z,27328.00
2018-04-17T09:08:13.372Z,76896.00
2018-04-17T09:09:13.357Z,27360.00
2018-04-17T09:10:13.383Z,87520.00
2018-04-17T09:11:13.339Z,22976.00
2018-04-17T09:12:13.328Z,84032.00
2018-04-17T09:13:13.295Z,76704.00
2018-04-17T09:14:13.278Z,84352.00
2018-04-17T09:15:13.259Z,85056.00
2018-04-17T09:16:13.243Z,36096.00
2018-04-17T09:17:13.272Z,74912.00
2018-04-17T09:18:13.215Z,57088.00
2018-04-17T09:19:13.195Z,29984.00
2018-04-17T09:20:13.175Z,88704.00
2018-04-17T09:21:13.233Z,83264.00
2018-04-17T09:22:13.146Z,88160.00
2018-04-17T09:23:13.142Z,86496.00
2018-04-17T09:24:13.115Z,84768.00
2018-04-17T09:25:13.094Z,22272.00
2018-04-17T09:26:13.087Z,90048.00
2018-04-17T09:27:13.075Z,85344.00
2018-04-17T09:28:13.048Z,87744.00
2018-04-17T09:29:13.113Z,88896.00
2018-04-17T09:30:13.012Z,36576.00
2018-04-17T09:31:12.995Z,85952.00
2018-04-17T09:32:12.980Z,86400.00
2018-04-17T09:33:13.014Z,83552.00
2018-04-17T09:34:12.948Z,72416.00
2018-04-17T09:35:12.942Z,78048.00
2018-04-17T09:36:13.021Z,83488.00
2018-04-17T09:37:12.900Z,84608.00
2018-04-17T09:38:12.888Z,84064.00
2018-04-17T09:39:12.880Z,85376.00
2018-04-17T09:40:12.852Z,87168.00
2018-04-17T09:41:12.835Z,86432.00
2018-04-17T09:42:12.825Z,84032.00
2018-04-17T09:43:12.809Z,86176.00
2018-04-17T09:44:12.791Z,87968.00
2018-04-17T09:45:12.773Z,86912.00
2018-04-17T09:46:12.777Z,84576.00
2018-04-17T09:47:12.758Z,83552.00
2018-04-17T09:48:12.730Z,84288.00
2018-04-17T09:49:12.725Z,82880.00
2018-04-17T09:50:12.699Z,82560.00
2018-04-17T09:51:12.685Z,85568.00
2018-04-17T09:52:12.670Z,87680.00
2018-04-17T09:53:12.654Z,88320.00
2018-04-17T09:54:12.640Z,86752.00
2018-04-17T09:55:12.677Z,86720.00
2018-04-17T09:56:12.612Z,89696.00
2018-04-17T09:57:12.599Z,23712.00
2018-04-17T09:58:12.589Z,85952.00
2018-04-17T09:59:12.571Z,86752.00
2018-04-17T10:00:12.553Z,88064.00
2018-04-17T10:01:12.540Z,88320.00
2018-04-17T10:02:12.525Z,88320.00
2018-04-17T10:03:12.512Z,84928.00
2018-04-17T10:04:12.501Z,85600.00
2018-04-17T10:05:12.488Z,87360.00
2018-04-17T10:06:12.468Z,86400.00
2018-04-17T10:07:12.469Z,85792.00
2018-04-17T10:08:12.438Z,83360.00
2018-04-17T10:09:12.468Z,83840.00
2018-04-17T10:10:12.410Z,84640.00
2018-04-17T10:11:12.395Z,87104.00
2018-04-17T10:12:12.386Z,89504.00
2018-04-17T10:13:12.367Z,78368.00
2018-04-17T10:14:12.360Z,90624.00
2018-04-17T10:15:12.339Z,88096.00
2018-04-17T10:16:12.383Z,17920.00
2018-04-17T10:17:12.373Z,90880.00
2018-04-17T10:18:12.297Z,39616.00
2018-04-17T10:19:12.287Z,92384.00
2018-04-17T10:20:12.267Z,90752.00
2018-04-17T10:21:12.253Z,86240.00
2018-04-17T10:22:12.237Z,90944.00
2018-04-17T10:23:12.221Z,90624.00
2018-04-17T10:24:12.207Z,86912.00
2018-04-17T10:25:12.193Z,86432.00
2018-04-17T10:26:12.179Z,89664.00
2018-04-17T10:27:12.163Z,29472.00
2018-04-17T10:28:12.146Z,28576.00
2018-04-17T10:29:12.134Z,88512.00
2018-04-17T10:30:12.150Z,86816.00
2018-04-17T10:31:12.101Z,87552.00
2018-04-17T10:32:12.087Z,88672.00
2018-04-17T10:33:12.074Z,90752.00
2018-04-17T10:34:12.057Z,89568.00
2018-04-17T10:35:12.041Z,89824.00
2018-04-17T10:36:12.029Z,91680.00
2018-04-17T10:37:12.016Z,96352.00
2018-04-17T10:38:11.998Z,97024.00
2018-04-17T10:39:11.983Z,100128.00
2018-04-17T10:40:11.979Z,76352.00
2018-04-17T10:41:11.955Z,98848.00
2018-04-17T10:42:11.940Z,97824.00
2018-04-17T10:43:11.962Z,99616.00
2018-04-17T10:44:11.920Z,99744.00
2018-04-17T10:45:11.899Z,99904.00
2018-04-17T10:46:11.912Z,101824.00
2018-04-17T10:47:11.869Z,97504.00
2018-04-17T10:48:11.857Z,96768.00
2018-04-17T10:49:11.925Z,96480.00
2018-04-17T10:50:11.828Z,95968.00
2018-04-17T10:51:11.817Z,101600.00
2018-04-17T10:52:11.804Z,101280.00
2018-04-17T10:53:11.795Z,97856.00
2018-04-17T10:54:11.778Z,99904.00
2018-04-17T10:55:11.760Z,98304.00
2018-04-17T10:56:11.765Z,97856.00
2018-04-17T10:57:11.731Z,100640.00
2018-04-17T10:58:11.717Z,36288.00
2018-04-17T10:59:11.719Z,36192.00
2018-04-17T11:00:11.703Z,30976.00
2018-04-17T11:01:11.717Z,96576.00
2018-04-17T11:02:11.677Z,95520.00
2018-04-17T11:03:11.677Z,82880.00
2018-04-17T11:04:11.667Z,90496.00
2018-04-17T11:05:11.636Z,89760.00
2018-04-17T11:06:11.609Z,90912.00
2018-04-17T11:07:11.596Z,89152.00
2018-04-17T11:08:11.587Z,90720.00
2018-04-17T11:09:11.574Z,93024.00
2018-04-17T11:10:11.555Z,96064.00
2018-04-17T11:11:11.548Z,94720.00
2018-04-17T11:12:11.552Z,92672.00
2018-04-17T11:13:11.517Z,73088.00
2018-04-17T11:14:11.502Z,100256.00
2018-04-17T11:15:11.495Z,101376.00
2018-04-17T11:16:11.488Z,97728.00
2018-04-17T11:17:11.486Z,100032.00
2018-04-17T11:18:11.457Z,97632.00
2018-04-17T11:19:11.437Z,97344.00
2018-04-17T11:20:11.424Z,98976.00
2018-04-17T11:21:11.412Z,78976.00
2018-04-17T11:22:11.400Z,28864.00
2018-04-17T11:23:11.398Z,101856.00
2018-04-17T11:24:11.373Z,99360.00
2018-04-17T11:25:11.360Z,94880.00
2018-04-17T11:26:11.351Z,93440.00
2018-04-17T11:27:11.335Z,96960.00
2018-04-17T11:28:11.330Z,96288.00
2018-04-17T11:29:11.308Z,94528.00
2018-04-17T11:30:11.301Z,93856.00
2018-04-17T11:31:11.282Z,96064.00
2018-04-17T11:32:11.269Z,97056.00
2018-04-17T11:33:11.262Z,84608.00
2018-04-17T11:34:11.244Z,97056.00
2018-04-17T11:35:11.231Z,65440.00
2018-04-17T11:36:11.220Z,70528.00
2018-04-17T11:37:11.209Z,96288.00
2018-04-17T11:38:11.192Z,97184.00
2018-04-17T11:39:11.213Z,98720.00
2018-04-17T11:40:11.168Z,101952.00
2018-04-17T11:41:11.153Z,101312.00
2018-04-17T11:42:11.142Z,96896.00
2018-04-17T11:43:11.136Z,98144.00
2018-04-17T11:44:11.116Z,99872.00
2018-04-17T11:45:11.105Z,101632.00
2018-04-17T11:46:11.091Z,98272.00
2018-04-17T11:47:11.095Z,95232.00
2018-04-17T11:48:11.066Z,96096.00
2018-04-17T11:49:11.060Z,99776.00
2018-04-17T11:50:11.043Z,103008.00
2018-04-17T11:51:11.029Z,103296.00
2018-04-17T11:52:11.017Z,106176.00
2018-04-17T11:53:11.005Z,106144.00
2018-04-17T11:54:11.029Z,106176.00
2018-04-17T11:55:10.981Z,103552.00
2018-04-17T11:56:10.978Z,103232.00
2018-04-17T11:57:10.960Z,100288.00
2018-04-17T11:58:10.945Z,96416.00
2018-04-17T11:59:10.935Z,97824.00
2018-04-17T12:00:10.927Z,96480.00
2018-04-17T12:01:10.913Z,96672.00
2018-04-17T12:02:10.913Z,99008.00
2018-04-17T12:03:10.929Z,80480.00
2018-04-17T12:04:10.885Z,72576.00
2018-04-17T12:05:10.877Z,53248.00
2018-04-17T12:06:10.852Z,95520.00
2018-04-17T12:07:10.845Z,98656.00
2018-04-17T12:08:10.830Z,74400.00
2018-04-17T12:09:10.836Z,29728.00
2018-04-17T12:10:10.824Z,73600.00
2018-04-17T12:11:10.867Z,30656.00
2018-04-17T12:12:10.815Z,44096.00
2018-04-17T12:13:10.822Z,34912.00
2018-04-17T12:14:10.822Z,88000.00
2018-04-17T12:15:10.750Z,44416.00